Time;durP1;ratioP1;P1;durP2;ratioP2;P2;SDS_P1;SDS_P2;PMS_P1;PMS_P2;Temp;Humidity;BMP_temperature;BMP_pressure;BME280_temperature;BME280_humidity;BME280_pressure;Samples;Min_cycle;Max_cycle;Signal;HPM_P1;HPM_P2
2022/04/21 00:00:15;;;;;;;8.40;6.60;;;10.30;61.60;;;;;;6098971;23;20408;-87
2022/04/21 00:02:42;;;;;;;7.03;6.37;;;10.40;62.10;;;;;;6098697;23;20487;-87
2022/04/21 00:05:10;;;;;;;7.57;6.50;;;10.30;62.10;;;;;;6097845;23;20429;-87
2022/04/21 00:07:37;;;;;;;7.70;6.47;;;10.30;62.80;;;;;;6098440;23;20421;-87
2022/04/21 00:10:05;;;;;;;9.00;7.30;;;10.20;62.70;;;;;;6115567;23;20439;-87
2022/04/21 00:12:33;;;;;;;6.90;6.30;;;10.20;62.80;;;;;;6124690;23;20412;-87
2022/04/21 00:15:02;;;;;;;8.67;7.87;;;10.10;62.90;;;;;;6098102;23;20456;-86
2022/04/21 00:17:28;;;;;;;7.80;7.10;;;10.10;63.80;;;;;;6098502;23;20484;-86
2022/04/21 00:19:55;;;;;;;7.73;7.03;;;10.00;64.00;;;;;;6100041;23;20412;-87
2022/04/21 00:25:08;;;;;;;6.90;6.40;;;10.00;64.30;;;;;;6124392;23;20429;-87
2022/04/21 00:27:37;;;;;;;6.70;6.07;;;10.00;64.60;;;;;;6125405;23;20586;-87
2022/04/21 00:30:07;;;;;;;8.13;7.47;;;10.00;65.10;;;;;;6119224;23;20444;-87
2022/04/21 00:32:34;;;;;;;8.10;6.50;;;10.00;65.20;;;;;;6108905;23;20400;-87
2022/04/21 00:35:01;;;;;;;10.20;6.83;;;10.00;65.30;;;;;;6097035;23;20448;-87
2022/04/21 00:37:28;;;;;;;7.27;6.70;;;10.00;65.40;;;;;;6097708;23;20432;-87
2022/04/21 00:39:55;;;;;;;9.70;6.77;;;10.00;65.50;;;;;;6097602;23;20891;-87
2022/04/21 00:42:21;;;;;;;7.63;6.90;;;9.90;66.70;;;;;;6097708;23;20419;-87
2022/04/21 00:44:49;;;;;;;10.07;7.00;;;10.00;65.50;;;;;;6097060;23;20420;-87
2022/04/21 00:47:19;;;;;;;7.83;7.13;;;9.90;66.90;;;;;;6097703;23;20408;-87
2022/04/21 00:49:46;;;;;;;8.20;6.97;;;9.80;67.40;;;;;;6113296;23;20428;-87
2022/04/21 00:52:15;;;;;;;8.60;7.63;;;9.80;67.70;;;;;;6124084;23;20475;-88
2022/04/21 00:54:43;;;;;;;6.87;6.27;;;9.80;68.50;;;;;;6120967;23;20468;-87
2022/04/21 00:57:10;;;;;;;7.70;7.00;;;9.70;69.00;;;;;;6125218;23;20403;-88
2022/04/21 00:59:38;;;;;;;7.47;6.70;;;9.60;69.50;;;;;;6123357;23;20415;-88
2022/04/21 01:04:51;;;;;;;7.70;6.80;;;9.50;70.50;;;;;;6097753;23;21000;-87
2022/04/21 01:07:18;;;;;;;7.80;7.07;;;9.30;70.90;;;;;;6098157;23;20404;-87
2022/04/21 01:09:45;;;;;;;7.43;6.83;;;9.30;71.70;;;;;;6097929;23;20450;-87
2022/04/21 01:12:14;;;;;;;8.30;7.50;;;9.20;72.00;;;;;;6098144;23;20451;-86
2022/04/21 01:14:40;;;;;;;8.00;7.30;;;9.20;72.20;;;;;;6111328;23;20428;-85
2022/04/21 01:17:08;;;;;;;8.07;7.27;;;9.20;72.40;;;;;;6110861;23;20416;-85
2022/04/21 01:19:35;;;;;;;8.40;7.70;;;9.20;72.90;;;;;;6102875;23;20407;-85
2022/04/21 01:22:04;;;;;;;8.83;8.10;;;9.10;72.90;;;;;;6100414;23;20408;-86
2022/04/21 01:24:30;;;;;;;7.70;7.00;;;9.10;73.20;;;;;;6097676;23;20425;-86
2022/04/21 01:26:58;;;;;;;8.07;7.40;;;9.10;73.60;;;;;;6099284;23;20926;-85
2022/04/21 01:29:27;;;;;;;8.27;7.20;;;9.10;73.80;;;;;;6102283;23;20448;-86
2022/04/21 01:31:54;;;;;;;10.60;7.20;;;9.00;73.80;;;;;;6098461;23;20730;-85
2022/04/21 01:34:21;;;;;;;7.87;7.07;;;9.10;73.90;;;;;;6096838;23;20583;-86
2022/04/21 01:42:18;;;;;;;9.70;8.73;;;9.00;73.70;;;;;;6122942;23;20385;-85
2022/04/21 01:44:45;;;;;;;9.37;7.60;;;9.10;74.10;;;;;;6105837;23;20428;-85
2022/04/21 01:47:12;;;;;;;8.13;7.43;;;9.10;74.20;;;;;;6107168;23;20397;-85
2022/04/21 01:49:38;;;;;;;8.57;7.80;;;9.10;74.30;;;;;;6123748;23;20428;-85
2022/04/21 01:52:05;;;;;;;10.20;7.23;;;9.00;74.50;;;;;;6104470;23;20415;-86
2022/04/21 01:54:33;;;;;;;9.23;7.70;;;9.00;75.10;;;;;;6098297;23;20436;-86
2022/04/21 01:57:00;;;;;;;10.37;9.07;;;8.90;75.40;;;;;;6098497;23;20912;-86
2022/04/21 01:59:27;;;;;;;10.27;9.27;;;8.90;75.90;;;;;;6098534;23;20409;-86
2022/04/21 02:01:53;;;;;;;8.80;8.07;;;8.90;76.40;;;;;;6099432;23;20412;-85
2022/04/21 02:04:20;;;;;;;10.07;9.03;;;8.80;76.60;;;;;;6098658;23;20388;-86
2022/04/21 02:06:47;;;;;;;9.03;8.10;;;8.70;77.30;;;;;;6097313;23;20467;-85
2022/04/21 02:09:14;;;;;;;9.10;8.30;;;8.60;78.00;;;;;;6100347;23;20449;-86
2022/04/21 02:11:42;;;;;;;9.27;8.47;;;8.60;78.60;;;;;;6096863;23;20954;-86
2022/04/21 02:14:09;;;;;;;10.10;9.10;;;8.60;78.90;;;;;;6097249;23;20746;-86
2022/04/21 02:16:36;;;;;;;10.40;9.30;;;8.60;78.90;;;;;;6097308;23;20413;-86
2022/04/21 02:19:02;;;;;;;9.60;8.70;;;8.60;79.30;;;;;;6110577;23;20416;-85
2022/04/21 02:21:29;;;;;;;10.70;9.63;;;8.70;79.80;;;;;;6124555;23;20478;-85
2022/04/21 02:23:56;;;;;;;9.80;9.00;;;8.60;79.70;;;;;;6115906;23;20467;-86
2022/04/21 02:26:22;;;;;;;9.67;8.73;;;8.60;79.90;;;;;;6121045;23;20468;-85
2022/04/21 02:28:50;;;;;;;9.63;8.73;;;8.50;80.20;;;;;;6124873;23;20400;-85
2022/04/21 02:31:17;;;;;;;10.07;9.17;;;8.50;80.40;;;;;;6121497;23;20455;-85
2022/04/21 02:33:44;;;;;;;9.83;9.00;;;8.60;80.70;;;;;;6110904;23;20393;-86
2022/04/21 02:36:10;;;;;;;10.50;9.60;;;8.60;80.70;;;;;;6122293;23;20447;-85
2022/04/21 02:38:37;;;;;;;9.90;9.10;;;8.60;80.70;;;;;;6124253;23;20413;-85
2022/04/21 02:41:04;;;;;;;9.60;8.70;;;8.50;81.20;;;;;;6119718;23;20413;-84
2022/04/21 02:43:31;;;;;;;10.67;9.67;;;8.50;81.40;;;;;;6115690;23;20401;-85
2022/04/21 02:45:59;;;;;;;9.93;8.93;;;8.60;81.40;;;;;;6122673;23;20416;-84
2022/04/21 02:48:26;;;;;;;10.10;9.20;;;8.50;81.40;;;;;;6123094;23;20413;-85
2022/04/21 02:50:52;;;;;;;11.30;10.20;;;8.50;81.70;;;;;;6109897;23;20763;-86
2022/04/21 02:57:20;;;;;;;10.50;9.70;;;8.60;81.80;;;;;;6105426;23;20407;-85
2022/04/21 02:58:52;;;;;;;13.37;9.97;;;8.50;82.20;;;;;;6099319;23;20909;-85
2022/04/21 03:01:20;;;;;;;9.63;8.83;;;8.50;82.40;;;;;;6099392;23;20405;-86
2022/04/21 03:03:47;;;;;;;10.90;10.00;;;8.60;82.90;;;;;;6098175;23;20416;-86
2022/04/21 03:06:14;;;;;;;10.63;9.63;;;8.60;83.30;;;;;;6098901;23;20408;-86
2022/04/21 03:08:40;;;;;;;10.80;9.90;;;8.50;83.40;;;;;;6098749;23;20409;-86
2022/04/21 03:11:07;;;;;;;10.67;9.77;;;8.40;84.10;;;;;;6099076;23;20980;-86
2022/04/21 03:13:33;;;;;;;10.33;9.43;;;8.30;84.70;;;;;;6097397;23;20416;-86
2022/04/21 03:16:00;;;;;;;9.73;8.67;;;8.40;84.70;;;;;;6099294;23;20429;-85
2022/04/21 03:18:28;;;;;;;10.13;9.33;;;8.40;84.60;;;;;;6107548;23;20413;-85
2022/04/21 03:26:24;;;;;;;11.20;10.20;;;8.30;85.90;;;;;;6123782;23;20408;-85
2022/04/21 03:28:50;;;;;;;11.03;10.10;;;8.30;86.00;;;;;;6123060;23;20444;-84
2022/04/21 03:31:17;;;;;;;13.70;10.80;;;8.20;86.60;;;;;;6114801;23;20440;-85
2022/04/21 03:33:46;;;;;;;12.30;10.97;;;8.10;87.00;;;;;;6117727;23;20412;-85
2022/04/21 03:36:13;;;;;;;11.97;10.97;;;8.10;87.70;;;;;;6119865;23;20456;-81
2022/04/21 03:38:40;;;;;;;11.10;10.10;;;8.10;88.50;;;;;;6125228;23;20477;-82
2022/04/21 03:41:07;;;;;;;12.60;11.30;;;8.00;88.50;;;;;;6126587;23;20399;-82
2022/04/21 03:43:33;;;;;;;11.80;10.77;;;8.00;89.00;;;;;;6126325;23;20466;-82
2022/04/21 03:46:00;;;;;;;11.30;10.40;;;8.00;89.30;;;;;;6105546;23;20681;-81
2022/04/21 03:48:27;;;;;;;13.10;10.97;;;8.00;89.60;;;;;;6097679;23;20408;-82
2022/04/21 03:50:55;;;;;;;12.07;11.03;;;7.90;89.90;;;;;;6097571;23;20800;-81
2022/04/21 03:53:21;;;;;;;14.30;10.03;;;7.90;90.10;;;;;;6097286;23;20385;-80
2022/04/21 03:55:48;;;;;;;12.23;10.97;;;8.00;90.30;;;;;;6096704;23;20432;-81
2022/04/21 03:58:15;;;;;;;11.70;10.70;;;8.00;90.20;;;;;;6097210;23;20440;-80
2022/04/21 04:00:41;;;;;;;12.10;11.00;;;7.90;90.20;;;;;;6096900;23;20412;-80
2022/04/21 04:03:08;;;;;;;12.60;11.30;;;7.90;90.40;;;;;;6099243;23;20433;-79
2022/04/21 04:05:35;;;;;;;11.57;10.57;;;7.90;90.50;;;;;;6101885;23;20420;-81
2022/04/21 04:10:53;;;;;;;11.10;10.20;;;7.80;90.70;;;;;;6104677;23;20757;-80
2022/04/21 04:13:20;;;;;;;11.93;10.73;;;7.80;90.80;;;;;;6101289;23;20800;-81
2022/04/21 04:15:48;;;;;;;11.63;10.43;;;7.70;90.90;;;;;;6105340;23;20440;-80
2022/04/21 04:18:16;;;;;;;14.40;12.10;;;7.70;90.90;;;;;;6113873;23;20455;-80
2022/04/21 04:20:43;;;;;;;11.67;10.63;;;7.70;91.00;;;;;;6103455;23;20444;-82
2022/04/21 04:23:11;;;;;;;13.20;11.93;;;7.70;91.20;;;;;;6100223;23;20415;-79
2022/04/21 04:25:38;;;;;;;12.17;10.90;;;7.70;91.30;;;;;;6099061;23;20429;-83
2022/04/21 04:28:05;;;;;;;12.87;11.57;;;7.70;91.40;;;;;;6099537;23;20408;-81
2022/04/21 04:30:32;;;;;;;12.40;11.30;;;7.70;91.40;;;;;;6099970;23;20405;-82
2022/04/21 04:32:59;;;;;;;12.57;11.37;;;7.70;91.60;;;;;;6099676;23;20434;-82
2022/04/21 04:35:26;;;;;;;13.27;12.07;;;7.70;91.80;;;;;;6098129;23;21002;-82
2022/04/21 04:37:53;;;;;;;18.83;14.27;;;7.60;92.10;;;;;;6100222;23;20797;-81
2022/04/21 04:40:21;;;;;;;14.93;13.17;;;7.60;92.00;;;;;;6099406;23;20444;-82
2022/04/21 04:42:47;;;;;;;14.80;12.93;;;7.60;92.10;;;;;;6098976;23;20792;-83
2022/04/21 04:47:59;;;;;;;13.53;12.23;;;7.60;92.00;;;;;;6103588;23;20372;-81
2022/04/21 04:50:26;;;;;;;13.03;11.83;;;7.70;92.20;;;;;;6104339;23;20464;-80
2022/04/21 04:52:58;;;;;;;13.87;12.57;;;7.80;92.10;;;;;;6102790;23;20464;-83
2022/04/21 04:55:26;;;;;;;12.27;11.17;;;7.90;91.80;;;;;;6097934;23;20428;-83
2022/04/21 04:57:53;;;;;;;13.27;12.00;;;8.00;91.80;;;;;;6099176;23;20415;-83
2022/04/21 05:00:20;;;;;;;12.07;11.00;;;8.10;91.60;;;;;;6098192;23;20440;-83
2022/04/21 05:02:47;;;;;;;12.87;11.77;;;8.10;91.50;;;;;;6099216;23;20416;-83
2022/04/21 05:05:13;;;;;;;14.30;12.47;;;8.20;91.50;;;;;;6111024;23;21006;-82
2022/04/21 05:07:40;;;;;;;13.97;12.60;;;8.50;91.20;;;;;;6100046;23;20476;-81
2022/04/21 05:10:08;;;;;;;13.40;12.00;;;8.80;90.20;;;;;;6099844;23;20405;-81
2022/04/21 05:12:36;;;;;;;12.80;11.57;;;9.20;88.90;;;;;;6099248;23;20413;-81
2022/04/21 05:15:04;;;;;;;12.20;11.10;;;9.50;86.90;;;;;;6100423;23;20515;-82
2022/04/21 05:17:31;;;;;;;11.70;10.60;;;9.80;85.10;;;;;;6099475;23;20915;-81
2022/04/21 05:19:59;;;;;;;13.33;12.03;;;9.90;82.20;;;;;;6107982;23;20409;-82
2022/04/21 05:22:28;;;;;;;13.40;12.20;;;10.00;80.40;;;;;;6106865;23;20412;-79
2022/04/21 05:24:57;;;;;;;14.13;12.93;;;10.10;80.00;;;;;;6100179;23;20426;-81
2022/04/21 05:27:24;;;;;;;13.97;12.63;;;10.20;79.10;;;;;;6100273;23;20385;-80
2022/04/21 05:32:53;;;;;;;13.90;12.60;;;10.10;78.00;;;;;;6010234;23;20406;-82
2022/04/21 05:35:20;;;;;;;15.00;11.57;;;10.10;78.20;;;;;;6078905;23;20437;-83
2022/04/21 05:37:47;;;;;;;14.50;13.10;;;10.00;78.30;;;;;;6097708;23;20412;-82
2022/04/21 05:40:15;;;;;;;13.73;12.37;;;10.10;78.70;;;;;;6098049;23;20440;-82
2022/04/21 05:42:46;;;;;;;12.30;11.30;;;10.20;78.60;;;;;;6098146;23;20412;-82
2022/04/21 05:45:16;;;;;;;13.77;12.50;;;10.30;78.50;;;;;;6098403;23;20437;-83
2022/04/21 05:47:45;;;;;;;13.87;12.57;;;10.30;78.00;;;;;;6106555;23;20399;-81
2022/04/21 05:50:13;;;;;;;14.17;12.97;;;10.40;77.80;;;;;;6109172;23;20440;-80
2022/04/21 05:52:45;;;;;;;13.97;12.67;;;10.70;78.00;;;;;;6109426;23;20408;-80
2022/04/21 05:55:15;;;;;;;14.70;13.17;;;11.30;76.90;;;;;;6119010;23;20437;-81
2022/04/21 05:57:43;;;;;;;13.40;12.20;;;11.60;73.80;;;;;;6106531;23;20488;-82
2022/04/21 06:00:11;;;;;;;16.27;14.23;;;11.80;73.00;;;;;;6102722;23;20496;-80
2022/04/21 06:02:39;;;;;;;15.27;13.97;;;11.90;71.90;;;;;;6104306;23;20408;-81
2022/04/21 06:05:07;;;;;;;15.70;14.20;;;12.00;71.70;;;;;;6098505;23;20484;-82
2022/04/21 06:07:33;;;;;;;16.47;14.53;;;12.20;70.20;;;;;;6103023;23;20414;-81
2022/04/21 06:10:00;;;;;;;15.53;14.00;;;12.40;69.90;;;;;;6103213;23;20409;-80
2022/04/21 06:12:27;;;;;;;14.70;13.37;;;13.10;69.30;;;;;;6101527;23;20406;-82
2022/04/21 06:14:54;;;;;;;14.10;13.00;;;13.40;66.20;;;;;;6102468;23;20465;-81
2022/04/21 06:17:21;;;;;;;14.67;13.37;;;14.10;64.70;;;;;;6101959;23;20418;-80
2022/04/21 06:19:49;;;;;;;15.17;13.73;;;13.60;63.20;;;;;;6111910;23;20413;-79
2022/04/21 06:22:15;;;;;;;16.83;15.43;;;14.20;62.90;;;;;;6112504;23;20448;-80
2022/04/21 06:24:42;;;;;;;17.13;15.70;;;14.20;60.90;;;;;;6114558;23;20448;-80
2022/04/21 06:27:09;;;;;;;14.80;13.50;;;14.60;60.70;;;;;;6112522;23;20484;-82
2022/04/21 06:29:36;;;;;;;15.57;14.07;;;15.20;60.00;;;;;;6114807;23;20427;-81
2022/04/21 06:32:03;;;;;;;16.10;14.80;;;15.60;58.70;;;;;;6113851;23;20423;-80
2022/04/21 06:34:32;;;;;;;14.43;13.30;;;15.50;57.80;;;;;;6105624;23;20408;-80
2022/04/21 06:37:00;;;;;;;14.40;13.10;;;16.00;57.60;;;;;;6100325;23;20409;-80
2022/04/21 06:39:27;;;;;;;15.67;14.27;;;16.00;56.60;;;;;;6099138;23;20425;-80
2022/04/21 06:41:54;;;;;;;15.00;13.80;;;15.50;57.40;;;;;;6100455;23;20444;-80
2022/04/21 06:50:01;;;;;;;14.90;13.60;;;16.90;54.80;;;;;;6089141;23;20454;-80
2022/04/21 06:52:32;;;;;;;15.73;14.13;;;17.50;54.30;;;;;;6099567;23;20899;-81
2022/04/21 06:54:59;;;;;;;14.30;13.20;;;18.30;52.80;;;;;;6098369;23;20810;-79
2022/04/21 06:57:25;;;;;;;14.70;13.60;;;18.80;51.70;;;;;;6098174;23;20836;-78
2022/04/21 06:59:52;;;;;;;15.40;14.20;;;19.00;50.40;;;;;;6097285;23;20405;-80
2022/04/21 07:02:25;;;;;;;15.00;13.23;;;19.60;50.10;;;;;;6097705;23;20751;-80
2022/04/21 07:04:52;;;;;;;14.37;13.10;;;20.00;49.00;;;;;;6102110;23;21137;-80
2022/04/21 07:07:19;;;;;;;16.80;15.50;;;20.10;48.00;;;;;;6098864;23;20892;-81
2022/04/21 07:09:47;;;;;;;14.57;13.47;;;19.90;47.70;;;;;;6097868;23;20951;-80
2022/04/21 07:12:15;;;;;;;16.30;14.80;;;20.30;47.70;;;;;;6098944;23;20409;-81
2022/04/21 07:14:42;;;;;;;14.83;13.63;;;19.90;47.60;;;;;;6104153;23;20430;-81
2022/04/21 07:17:09;;;;;;;14.30;13.27;;;20.10;47.50;;;;;;6098051;23;20415;-82
2022/04/21 07:19:35;;;;;;;14.60;13.47;;;20.30;47.10;;;;;;6098299;23;20565;-81
2022/04/21 07:22:02;;;;;;;14.97;13.87;;;20.50;46.40;;;;;;6099429;23;20801;-80
2022/04/21 07:24:29;;;;;;;15.70;14.50;;;20.40;47.00;;;;;;6108454;23;20434;-81
2022/04/21 07:26:57;;;;;;;15.27;14.17;;;19.90;46.70;;;;;;6104919;23;20424;-81
2022/04/21 07:29:25;;;;;;;14.60;13.50;;;19.80;46.90;;;;;;6098399;23;20480;-82
2022/04/21 07:31:52;;;;;;;13.50;12.30;;;19.90;47.20;;;;;;6097818;23;20416;-82
2022/04/21 07:34:18;;;;;;;15.33;14.13;;;20.40;46.70;;;;;;6103112;23;20408;-80
2022/04/21 07:36:46;;;;;;;14.30;13.10;;;20.80;46.00;;;;;;6110654;23;20424;-80
2022/04/21 07:39:15;;;;;;;15.33;14.13;;;20.90;45.70;;;;;;6100564;23;20406;-81
2022/04/21 07:41:42;;;;;;;15.50;14.30;;;21.50;44.90;;;;;;6098922;23;20447;-80
2022/04/21 07:44:10;;;;;;;13.60;12.60;;;21.00;45.60;;;;;;6099803;23;20448;-80
2022/04/21 07:46:37;;;;;;;15.17;14.00;;;21.30;44.60;;;;;;6098792;23;20428;-80
2022/04/21 07:51:48;;;;;;;15.43;14.13;;;20.40;45.60;;;;;;6102096;23;20711;-80
2022/04/21 07:54:14;;;;;;;13.80;12.70;;;19.40;46.80;;;;;;6098987;23;20917;-80
2022/04/21 07:56:40;;;;;;;15.43;14.00;;;19.30;48.10;;;;;;6098781;23;20431;-81
2022/04/21 07:59:07;;;;;;;15.33;14.13;;;19.70;47.80;;;;;;6098486;23;20186;-80
2022/04/21 08:01:35;;;;;;;16.80;15.33;;;19.90;47.10;;;;;;6098844;23;20522;-79
2022/04/21 08:04:03;;;;;;;16.10;14.70;;;20.70;46.40;;;;;;6098138;23;20411;-80
2022/04/21 08:06:30;;;;;;;15.67;14.47;;;20.40;45.80;;;;;;6098050;23;20463;-80
2022/04/21 08:08:57;;;;;;;13.70;12.70;;;20.70;45.60;;;;;;6107937;23;20396;-79
2022/04/21 08:11:23;;;;;;;14.57;13.37;;;20.60;45.40;;;;;;6111110;23;20429;-79
2022/04/21 08:13:50;;;;;;;14.50;13.23;;;20.50;45.80;;;;;;6107427;23;20411;-79
2022/04/21 08:16:17;;;;;;;12.40;11.40;;;20.70;45.30;;;;;;6100860;23;20435;-78
2022/04/21 08:18:52;;;;;;;13.13;11.80;;;21.50;44.60;;;;;;6100736;23;20479;-78
2022/04/21 08:21:19;;;;;;;14.03;12.90;;;22.50;43.60;;;;;;6098247;23;20424;-79
2022/04/21 08:23:48;;;;;;;14.70;13.53;;;23.60;41.80;;;;;;6098951;23;20406;-79
2022/04/21 08:34:30;;;;;;;13.83;12.60;;;23.40;42.00;;;;;;6098470;23;20411;-80
2022/04/21 08:36:57;;;;;;;14.13;13.03;;;24.40;40.30;;;;;;6098760;23;20411;-80
2022/04/21 08:39:24;;;;;;;13.30;12.30;;;24.50;39.50;;;;;;6099536;23;20491;-80
2022/04/21 08:41:53;;;;;;;12.23;11.33;;;24.20;39.80;;;;;;6099274;23;20513;-80
2022/04/21 08:44:20;;;;;;;12.93;11.93;;;24.90;40.50;;;;;;6098394;23;20946;-80
2022/04/21 08:46:48;;;;;;;11.37;10.57;;;23.50;39.20;;;;;;6099576;23;20425;-78
2022/04/21 08:49:18;;;;;;;13.77;12.77;;;23.60;39.90;;;;;;6108338;23;20430;-79
2022/04/21 08:51:46;;;;;;;13.33;12.40;;;23.00;40.90;;;;;;6104744;23;20410;-80
2022/04/21 08:54:13;;;;;;;12.50;11.60;;;22.10;41.00;;;;;;6099844;23;20462;-79
2022/04/21 08:56:39;;;;;;;12.30;11.40;;;22.00;41.90;;;;;;6098743;23;20431;-79
2022/04/21 08:59:06;;;;;;;12.27;11.37;;;23.50;41.00;;;;;;6099776;23;20419;-78
2022/04/21 09:01:33;;;;;;;12.80;11.70;;;24.50;40.10;;;;;;6105435;23;20499;-78
2022/04/21 09:04:00;;;;;;;12.30;11.50;;;24.90;38.50;;;;;;6113852;23;20401;-77
2022/04/21 09:06:29;;;;;;;12.07;11.17;;;24.10;39.30;;;;;;6117062;23;20432;-79
2022/04/21 09:09:16;;;;;;;11.00;10.23;;;24.50;39.00;;;;;;6102831;23;20437;-79
2022/04/21 09:11:43;;;;;;;11.73;10.73;;;25.20;37.80;;;;;;6113210;23;20389;-79
2022/04/21 09:14:15;;;;;;;12.80;11.60;;;25.50;37.20;;;;;;6100032;23;20404;-80
2022/04/21 09:16:42;;;;;;;12.60;11.60;;;24.70;38.30;;;;;;6098351;23;20412;-78
2022/04/21 09:19:08;;;;;;;12.80;11.90;;;24.10;39.60;;;;;;6098811;23;20463;-80
2022/04/21 09:21:37;;;;;;;11.77;10.97;;;25.40;38.30;;;;;;6099907;23;20511;-80
2022/04/21 09:24:20;;;;;;;11.60;10.70;;;25.90;36.60;;;;;;6098731;23;20409;-80
2022/04/21 09:26:47;;;;;;;12.23;11.33;;;26.20;36.60;;;;;;6098604;23;20407;-80
2022/04/21 09:29:23;;;;;;;11.70;10.90;;;26.70;36.80;;;;;;6098611;23;20416;-79
2022/04/21 09:31:55;;;;;;;9.90;9.20;;;26.80;35.50;;;;;;6099213;23;20417;-79
2022/04/21 09:34:22;;;;;;;10.57;9.70;;;27.00;34.00;;;;;;6098329;23;20420;-79
2022/04/21 09:36:49;;;;;;;11.43;10.53;;;26.00;34.50;;;;;;6098033;23;20416;-80
2022/04/21 09:39:16;;;;;;;10.73;9.93;;;25.60;35.70;;;;;;6098235;23;20397;-80
2022/04/21 09:41:45;;;;;;;10.00;9.30;;;25.20;36.60;;;;;;6098947;23;20506;-86
2022/04/21 09:46:55;;;;;;;9.43;8.83;;;27.20;33.90;;;;;;6151158;23;20415;-86
2022/04/21 09:49:34;;;;;;;10.13;9.43;;;28.20;33.20;;;;;;6131392;23;20414;-86
2022/04/21 09:52:01;;;;;;;8.40;7.90;;;29.90;31.30;;;;;;6123417;23;20416;-86
2022/04/21 09:54:29;;;;;;;8.70;8.00;;;31.00;30.20;;;;;;6103401;23;20412;-87
2022/04/21 09:56:58;;;;;;;8.00;7.40;;;31.60;29.30;;;;;;6101316;23;20393;-87
2022/04/21 09:59:25;;;;;;;8.13;7.47;;;31.60;29.00;;;;;;6104061;23;20412;-86
2022/04/21 10:01:52;;;;;;;9.37;8.73;;;30.30;28.90;;;;;;6101079;23;20452;-88
2022/04/21 10:04:19;;;;;;;8.60;8.00;;;27.90;30.60;;;;;;6101169;23;20496;-87
2022/04/21 10:06:46;;;;;;;8.97;8.27;;;27.30;32.80;;;;;;6101634;23;20474;-86
2022/04/21 10:09:16;;;;;;;9.20;8.50;;;28.20;32.90;;;;;;6104083;23;20404;-86
2022/04/21 10:11:43;;;;;;;8.23;7.63;;;29.70;31.70;;;;;;6104591;23;20425;-86
2022/04/21 10:14:13;;;;;;;8.20;7.70;;;30.60;30.90;;;;;;6102682;23;20405;-87
2022/04/21 10:16:42;;;;;;;8.00;7.43;;;31.10;30.00;;;;;;6106458;23;20412;-87
2022/04/21 10:19:11;;;;;;;8.17;7.43;;;30.90;30.00;;;;;;6122170;23;20420;-87
2022/04/21 10:21:48;;;;;;;7.70;7.10;;;31.40;29.40;;;;;;6122065;23;20439;-87
2022/04/21 10:24:21;;;;;;;7.97;7.47;;;30.70;29.50;;;;;;6119068;23;20452;-86
2022/04/21 10:26:49;;;;;;;7.47;7.00;;;29.60;30.10;;;;;;6112886;23;20393;-87
2022/04/21 10:29:19;;;;;;;8.53;7.93;;;30.40;30.10;;;;;;6105456;23;20396;-86
2022/04/21 10:31:49;;;;;;;8.47;7.77;;;30.40;29.80;;;;;;6104105;23;20507;-87
2022/04/21 10:34:34;;;;;;;7.87;7.27;;;30.80;29.60;;;;;;6103643;23;20389;-87
2022/04/21 10:37:12;;;;;;;7.73;7.23;;;29.10;30.00;;;;;;6106674;23;20433;-87
2022/04/21 10:39:39;;;;;;;7.07;6.50;;;26.80;32.70;;;;;;6101385;23;20410;-87
2022/04/21 10:42:19;;;;;;;7.00;6.57;;;26.40;33.90;;;;;;6101302;23;20433;-86
2022/04/21 10:44:49;;;;;;;8.27;7.67;;;25.80;35.30;;;;;;6100440;23;20393;-87
2022/04/21 10:47:43;;;;;;;7.43;6.87;;;25.80;35.10;;;;;;6101448;23;20455;-87
2022/04/21 10:50:18;;;;;;;8.43;7.73;;;25.00;36.50;;;;;;6035273;23;20423;-87
2022/04/21 10:58:53;;;;;;;6.50;6.00;;;26.80;35.40;;;;;;6102630;23;20379;-87
2022/04/21 11:01:33;;;;;;;7.77;7.07;;;28.60;32.90;;;;;;6122154;23;20414;-85
2022/04/21 11:04:12;;;;;;;8.00;6.00;;;28.90;31.80;;;;;;6119594;23;20393;-87
2022/04/21 11:06:41;;;;;;;6.33;5.83;;;29.10;31.90;;;;;;6118083;23;20443;-85
2022/04/21 11:09:08;;;;;;;5.97;5.47;;;28.30;32.20;;;;;;6119571;23;20411;-85
2022/04/21 11:11:45;;;;;;;5.83;5.33;;;28.30;32.40;;;;;;6121110;23;20507;-85
2022/04/21 11:14:28;;;;;;;5.87;5.37;;;29.80;31.80;;;;;;6122737;23;20396;-86
2022/04/21 11:16:58;;;;;;;5.30;4.90;;;31.10;30.30;;;;;;6122280;23;20392;-86
2022/04/21 11:19:37;;;;;;;4.50;4.20;;;31.50;29.90;;;;;;6115469;23;20388;-86
2022/04/21 11:22:05;;;;;;;5.60;4.67;;;31.40;29.80;;;;;;6115402;23;20448;-86
2022/04/21 11:25:01;;;;;;;6.20;4.40;;;32.10;29.50;;;;;;6123429;23;20400;-86
2022/04/21 11:27:32;;;;;;;4.67;4.27;;;31.70;29.30;;;;;;6121966;23;20395;-85
2022/04/21 11:30:01;;;;;;;4.00;3.70;;;31.90;28.80;;;;;;6120524;23;20389;-86
2022/04/21 11:32:30;;;;;;;4.00;3.70;;;32.40;29.10;;;;;;6110821;23;20476;-86
2022/04/21 11:35:01;;;;;;;4.13;3.73;;;32.70;28.60;;;;;;6105908;23;20408;-86
2022/04/21 11:37:51;;;;;;;3.70;3.47;;;31.80;29.40;;;;;;6104886;23;20399;-86
2022/04/21 11:40:23;;;;;;;4.00;3.70;;;32.10;29.10;;;;;;6103850;23;20441;-86
2022/04/21 11:42:51;;;;;;;3.10;2.90;;;31.40;28.80;;;;;;6107707;23;20432;-85
2022/04/21 11:45:21;;;;;;;6.60;5.90;;;29.60;30.00;;;;;;6109828;23;20472;-86
2022/04/21 11:47:49;;;;;;;3.00;2.80;;;27.90;31.20;;;;;;6115189;23;20796;-86
2022/04/21 11:50:27;;;;;;;3.23;2.93;;;25.80;34.40;;;;;;6119511;23;20420;-84
2022/04/21 11:52:57;;;;;;;3.40;3.10;;;25.80;35.50;;;;;;6110253;23;20448;-86
2022/04/21 11:55:29;;;;;;;2.73;2.53;;;28.10;33.80;;;;;;6102024;23;20397;-86
2022/04/21 11:57:56;;;;;;;3.90;2.20;;;30.10;30.80;;;;;;6102683;23;20848;-85
2022/04/21 12:08:48;;;;;;;1.80;1.70;;;29.50;29.40;;;;;;6105194;23;20561;-86
2022/04/21 12:11:21;;;;;;;1.93;1.67;;;28.80;30.30;;;;;;6102758;23;20429;-86
2022/04/21 12:13:51;;;;;;;1.73;1.63;;;27.80;30.20;;;;;;6108401;23;20493;-85
2022/04/21 12:16:42;;;;;;;2.47;2.27;;;24.80;33.10;;;;;;6124781;23;20392;-86
2022/04/21 12:19:18;;;;;;;1.83;1.73;;;23.90;35.90;;;;;;6103600;23;20393;-86
2022/04/21 12:21:54;;;;;;;3.83;1.90;;;26.30;34.30;;;;;;6102849;23;20436;-86
2022/04/21 12:24:22;;;;;;;2.90;2.60;;;27.30;33.00;;;;;;6100735;23;20410;-88
2022/04/21 12:26:51;;;;;;;3.57;2.90;;;27.20;32.70;;;;;;6103427;23;20463;-87
2022/04/21 12:29:18;;;;;;;2.27;2.07;;;26.00;33.90;;;;;;6116188;23;20806;-88
2022/04/21 12:31:48;;;;;;;1.80;1.60;;;24.60;35.40;;;;;;6121608;23;20416;-88
2022/04/21 12:34:26;;;;;;;2.07;1.90;;;23.60;36.80;;;;;;6105414;23;20451;-87
2022/04/21 12:36:54;;;;;;;2.60;1.80;;;25.10;35.80;;;;;;6101837;23;20397;-88
2022/04/21 12:39:22;;;;;;;2.30;1.80;;;24.80;34.90;;;;;;6118975;23;20435;-88
2022/04/21 12:41:51;;;;;;;1.83;1.60;;;24.10;35.70;;;;;;6118624;23;20449;-88
2022/04/21 12:44:22;;;;;;;1.90;1.80;;;23.50;36.70;;;;;;6113609;23;20503;-88
2022/04/21 12:47:03;;;;;;;3.00;2.07;;;23.80;36.70;;;;;;6105564;23;20471;-89
2022/04/21 12:50:00;;;;;;;2.90;2.00;;;22.40;37.80;;;;;;6112808;23;20377;-89
2022/04/21 12:52:35;;;;;;;2.67;1.83;;;22.00;38.60;;;;;;6119332;23;20479;-88
2022/04/21 12:55:05;;;;;;;3.30;3.00;;;22.70;39.00;;;;;;6109834;23;20875;-89
2022/04/21 12:57:32;;;;;;;2.73;2.53;;;24.50;36.80;;;;;;6102713;23;20413;-89
2022/04/21 12:59:59;;;;;;;2.67;2.47;;;24.50;36.90;;;;;;6102317;23;20407;-88
2022/04/21 13:02:27;;;;;;;2.13;1.97;;;23.90;37.60;;;;;;6103163;23;21191;-89
2022/04/21 13:04:54;;;;;;;2.53;2.17;;;23.40;37.50;;;;;;6103785;23;20399;-88
2022/04/21 13:07:22;;;;;;;3.27;2.53;;;23.10;38.30;;;;;;6112495;23;20409;-88
2022/04/21 13:09:50;;;;;;;2.80;2.60;;;22.50;39.60;;;;;;6123889;23;20441;-87
2022/04/21 13:12:17;;;;;;;3.07;2.87;;;22.00;40.90;;;;;;6104741;23;20451;-85
2022/04/21 13:14:44;;;;;;;5.70;3.03;;;21.80;41.80;;;;;;6097756;23;20412;-85
2022/04/21 13:17:10;;;;;;;3.33;3.00;;;22.00;41.90;;;;;;6096976;23;20412;-86
2022/04/21 13:19:37;;;;;;;3.50;3.03;;;22.10;41.80;;;;;;6099244;23;20751;-85
2022/04/21 13:22:06;;;;;;;3.27;2.97;;;22.50;41.30;;;;;;6098317;23;20981;-85
2022/04/21 13:24:34;;;;;;;2.97;2.77;;;22.10;40.90;;;;;;6113603;23;20439;-85
2022/04/21 13:27:02;;;;;;;3.13;2.93;;;22.30;41.40;;;;;;6119439;23;20408;-84
2022/04/21 13:29:29;;;;;;;2.70;2.50;;;22.30;40.30;;;;;;6079547;23;20404;-85
2022/04/21 13:34:42;;;;;;;3.77;3.37;;;23.00;40.90;;;;;;6099131;23;20372;-85
2022/04/21 13:37:09;;;;;;;4.63;2.80;;;23.10;39.00;;;;;;6096942;23;20508;-85
2022/04/21 13:39:38;;;;;;;3.10;2.67;;;23.30;39.90;;;;;;6097712;23;20425;-85
2022/04/21 13:42:05;;;;;;;2.97;2.67;;;23.90;38.90;;;;;;6096815;23;20438;-84
2022/04/21 13:44:32;;;;;;;3.17;2.97;;;25.50;38.10;;;;;;6096845;23;20898;-84
2022/04/21 13:46:59;;;;;;;3.20;2.90;;;27.00;35.20;;;;;;6101827;23;20403;-84
2022/04/21 13:49:26;;;;;;;3.10;2.80;;;28.00;32.90;;;;;;6116401;23;20424;-84
2022/04/21 13:51:53;;;;;;;3.37;3.10;;;28.00;32.30;;;;;;6103840;23;20448;-85